createdAt,value
2023-03-11T00:03:25.072Z,56.90
2023-03-11T00:08:27.107Z,56.90
2023-03-11T00:13:28.894Z,56.80
2023-03-11T00:18:31.473Z,56.70
2023-03-11T00:23:35.520Z,56.70
2023-03-11T00:28:37.354Z,56.70
2023-03-11T00:33:39.381Z,56.60
2023-03-11T00:38:41.200Z,56.50
2023-03-11T00:43:43.609Z,56.50
2023-03-11T00:48:45.176Z,56.50
2023-03-11T00:53:46.743Z,56.50
2023-03-11T00:58:48.425Z,56.50
2023-03-11T01:03:49.981Z,56.50
2023-03-11T01:08:51.555Z,56.50
2023-03-11T01:13:53.129Z,56.50
2023-03-11T01:18:54.868Z,56.40
2023-03-11T01:23:56.611Z,56.40
2023-03-11T01:28:58.250Z,56.20
2023-03-11T01:33:59.814Z,56.20
2023-03-11T01:39:01.470Z,56.10
2023-03-11T01:44:04.883Z,56.10
2023-03-11T01:49:11.926Z,56.20
2023-03-11T01:54:16.031Z,56.10
2023-03-11T01:59:19.703Z,56.10
2023-03-11T02:04:21.394Z,55.90
2023-03-11T02:09:24.234Z,55.60
2023-03-11T02:14:26.989Z,55.60
2023-03-11T02:19:48.641Z,55.50
2023-03-11T02:24:56.418Z,55.70
2023-03-11T02:29:58.879Z,55.50
2023-03-11T02:35:00.416Z,55.50
2023-03-11T02:40:33.123Z,55.50
2023-03-11T02:45:35.503Z,55.50
2023-03-11T02:50:37.531Z,55.30
2023-03-11T02:55:39.272Z,55.50
2023-03-11T03:00:41.074Z,55.50
2023-03-11T03:05:42.954Z,55.30
2023-03-11T03:10:44.761Z,55.10
2023-03-11T03:15:46.634Z,55.00
2023-03-11T03:20:48.348Z,54.80
2023-03-11T03:25:50.033Z,54.80
2023-03-11T03:30:51.662Z,54.80
2023-03-11T03:35:53.296Z,54.80
2023-03-11T03:40:54.945Z,54.80
2023-03-11T03:46:01.539Z,55.10
2023-03-11T03:51:04.498Z,55.20
2023-03-11T03:56:10.718Z,55.10
2023-03-11T04:01:13.045Z,55.10
2023-03-11T04:06:14.575Z,54.90
2023-03-11T04:11:16.244Z,54.90
2023-03-11T04:16:20.110Z,54.50
2023-03-11T04:21:21.769Z,55.00
2023-03-11T04:26:23.420Z,55.00
2023-03-11T04:31:25.061Z,54.80
2023-03-11T04:36:26.693Z,54.70
2023-03-11T04:41:28.800Z,54.70
2023-03-11T06:04:20.377Z,54.70
2023-03-11T06:09:22.127Z,54.10
2023-03-11T06:14:23.992Z,53.70
2023-03-11T06:19:25.904Z,53.60
2023-03-11T06:24:27.466Z,53.40
2023-03-11T06:29:30.061Z,53.20
2023-03-11T06:34:31.708Z,53.10
2023-03-11T06:39:33.321Z,53.00
2023-03-11T06:44:34.953Z,53.00
2023-03-11T06:49:40.926Z,53.00
2023-03-11T06:54:43.174Z,52.90
2023-03-11T06:59:45.035Z,53.00
2023-03-11T07:04:49.041Z,53.10
2023-03-11T07:09:50.746Z,53.20
2023-03-11T07:14:56.281Z,53.40
2023-03-11T07:19:57.852Z,53.50
2023-03-11T07:24:59.516Z,53.60
2023-03-11T07:30:02.262Z,53.70
2023-03-11T07:35:04.077Z,54.00
2023-03-11T07:40:05.988Z,54.20
2023-03-11T07:45:07.954Z,54.20
2023-03-11T07:50:09.939Z,54.20
2023-03-11T07:55:11.897Z,54.00
2023-03-11T08:00:13.883Z,53.70
2023-03-11T08:05:15.584Z,53.40
2023-03-11T08:10:17.326Z,53.20
2023-03-11T08:15:18.958Z,53.20
2023-03-11T08:20:20.686Z,53.10
2023-03-11T08:25:22.338Z,53.00
2023-03-11T08:30:24.259Z,52.90
2023-03-11T08:35:26.882Z,52.80
2023-03-11T08:40:29.072Z,52.90
2023-03-11T08:45:30.812Z,53.10
2023-03-11T08:50:41.253Z,53.30
2023-03-11T08:55:49.921Z,53.40
2023-03-11T09:00:51.593Z,53.40
2023-03-11T09:05:56.715Z,53.20
2023-03-11T09:10:58.513Z,53.20
2023-03-11T09:16:00.321Z,53.20
2023-03-11T09:21:02.001Z,53.30
2023-03-11T09:26:03.927Z,53.70
2023-03-11T09:31:05.576Z,55.00
2023-03-11T09:36:07.829Z,54.80
2023-03-11T09:41:15.220Z,54.10
2023-03-11T09:46:25.747Z,54.10
2023-03-11T09:51:32.766Z,54.50
2023-03-11T09:56:35.448Z,54.60
2023-03-11T10:01:40.572Z,54.80
2023-03-11T10:06:44.226Z,55.20
2023-03-11T10:11:51.724Z,55.20
2023-03-11T10:17:01.562Z,55.30
2023-03-11T10:22:11.590Z,55.30
2023-03-11T10:27:16.076Z,55.50
2023-03-11T10:32:20.505Z,56.50
2023-03-11T10:37:38.860Z,55.50
2023-03-11T10:42:47.990Z,55.80
2023-03-11T10:47:49.677Z,55.70
2023-03-11T10:53:10.867Z,55.60
2023-03-11T10:58:14.147Z,55.50
2023-03-11T11:03:18.420Z,55.30
2023-03-11T11:08:20.056Z,55.00
2023-03-11T11:13:25.412Z,54.80
2023-03-11T11:18:28.945Z,54.50
2023-03-11T11:23:56.687Z,54.40
2023-03-11T11:29:13.309Z,54.30
2023-03-11T11:34:31.717Z,54.40
2023-03-11T11:39:43.114Z,54.60
2023-03-11T11:44:46.642Z,54.70
2023-03-11T11:50:10.939Z,55.30
2023-03-11T11:55:26.394Z,55.40
2023-03-11T12:00:37.877Z,55.60
2023-03-11T12:05:51.111Z,55.70
2023-03-11T12:11:02.685Z,55.80
2023-03-11T12:16:04.641Z,55.90
2023-03-11T12:21:27.444Z,55.90
2023-03-11T12:26:33.812Z,55.90
2023-03-11T12:31:39.039Z,55.80
2023-03-11T12:36:44.700Z,56.10
2023-03-11T12:41:46.967Z,58.30
2023-03-11T12:46:54.882Z,58.30
2023-03-11T12:52:01.441Z,58.20
2023-03-11T12:57:05.579Z,58.10
2023-03-11T13:02:10.222Z,59.00
2023-03-11T13:07:14.663Z,57.50
2023-03-11T13:12:34.971Z,57.50
2023-03-11T13:17:36.683Z,57.40
2023-03-11T13:22:41.474Z,57.50
2023-03-11T13:27:44.056Z,57.60
2023-03-11T13:32:53.975Z,57.70
2023-03-11T13:38:13.840Z,57.80
2023-03-11T13:43:22.806Z,58.00
2023-03-11T13:48:24.417Z,58.00
2023-03-11T13:53:29.612Z,58.10
2023-03-11T13:58:31.192Z,58.10
2023-03-11T14:03:35.846Z,58.20
2023-03-11T14:08:38.299Z,57.90
2023-03-11T14:13:44.150Z,57.90
2023-03-11T14:18:46.777Z,58.30
2023-03-11T14:23:49.827Z,58.20
2023-03-11T14:28:52.780Z,58.00
2023-03-11T14:33:55.784Z,58.10
2023-03-11T14:38:57.572Z,58.20
2023-03-11T14:43:59.134Z,58.10
2023-03-11T14:49:01.391Z,58.20
2023-03-11T14:54:08.723Z,58.30
2023-03-11T14:59:13.203Z,58.50
2023-03-11T15:04:27.696Z,58.50
2023-03-11T15:09:29.617Z,58.60
2023-03-11T15:14:32.585Z,58.80
2023-03-11T15:19:38.302Z,58.60
2023-03-11T15:24:40.039Z,58.50
2023-03-11T15:29:50.017Z,58.40
2023-03-11T15:35:13.098Z,58.30
2023-03-11T15:40:19.546Z,59.20
2023-03-11T15:45:21.451Z,58.10
2023-03-11T15:50:28.617Z,58.10
2023-03-11T15:55:37.091Z,57.90
2023-03-11T16:00:40.199Z,57.60
2023-03-11T16:05:41.963Z,57.40
2023-03-11T16:10:43.937Z,57.00
2023-03-11T16:15:46.962Z,56.70
2023-03-11T16:20:52.950Z,56.50
2023-03-11T16:25:57.143Z,56.30
2023-03-11T16:30:58.975Z,56.20
2023-03-11T16:36:00.766Z,56.20
2023-03-11T16:41:02.880Z,56.30
2023-03-11T16:46:04.645Z,56.20
2023-03-11T16:51:06.415Z,56.40
2023-03-11T16:56:07.991Z,56.40
2023-03-11T17:01:12.031Z,56.70
2023-03-11T17:06:13.839Z,56.80
2023-03-11T17:11:19.888Z,56.80
2023-03-11T17:16:21.803Z,57.20
2023-03-11T17:21:23.499Z,57.60
2023-03-11T17:26:26.473Z,57.50
2023-03-11T17:31:28.353Z,58.60
2023-03-11T17:36:30.017Z,59.80
2023-03-11T17:41:31.631Z,62.30
2023-03-11T17:46:35.307Z,60.10
2023-03-11T17:51:37.197Z,59.60
2023-03-11T17:56:38.880Z,60.00
2023-03-11T18:01:40.673Z,59.80
2023-03-11T18:06:43.250Z,59.60
2023-03-11T18:11:44.894Z,60.00
2023-03-11T18:16:46.486Z,60.10
2023-03-11T18:21:48.238Z,60.80
2023-03-11T18:26:49.914Z,60.50
2023-03-11T18:31:51.555Z,60.80
2023-03-11T18:36:53.281Z,61.00
2023-03-11T18:41:55.004Z,62.20
2023-03-11T18:46:56.761Z,61.20
2023-03-11T18:51:59.203Z,61.50
2023-03-11T18:57:01.017Z,61.50
2023-03-11T19:02:02.596Z,61.50
2023-03-11T19:07:04.316Z,61.40
2023-03-11T19:12:06.129Z,61.80
2023-03-11T19:17:07.951Z,61.60
2023-03-11T19:22:09.848Z,61.20
2023-03-11T19:27:12.117Z,60.80
2023-03-11T19:32:13.978Z,60.60
2023-03-11T19:37:17.178Z,60.70
2023-03-11T19:42:18.929Z,60.60
2023-03-11T19:47:20.596Z,60.40
2023-03-11T19:52:23.265Z,60.20
2023-03-11T19:57:24.889Z,60.20
2023-03-11T20:02:26.562Z,60.40
2023-03-11T20:07:28.327Z,60.40
2023-03-11T20:12:30.194Z,60.40
2023-03-11T20:17:32.097Z,60.50
2023-03-11T20:22:33.915Z,60.60
2023-03-11T20:27:35.793Z,60.80
2023-03-11T20:32:37.724Z,60.80
2023-03-11T20:37:39.367Z,60.80
2023-03-11T20:42:43.216Z,60.60
2023-03-11T20:47:44.987Z,60.40
2023-03-11T20:52:46.688Z,60.30
2023-03-11T20:57:48.293Z,60.20
2023-03-11T21:02:50.192Z,60.10
2023-03-11T21:07:52.264Z,60.10
2023-03-11T21:12:54.234Z,60.10
2023-03-11T21:17:55.933Z,60.00
2023-03-11T21:22:57.640Z,60.00
2023-03-11T21:27:59.337Z,60.00
2023-03-11T21:33:00.984Z,60.00
2023-03-11T21:38:02.882Z,60.00
2023-03-11T21:43:04.783Z,60.00
2023-03-11T21:48:09.034Z,60.90
2023-03-11T21:53:10.775Z,59.70
2023-03-11T21:58:13.281Z,59.80
2023-03-11T22:03:15.115Z,59.80
2023-03-11T22:08:16.713Z,59.70
2023-03-11T22:13:18.485Z,59.70
2023-03-11T22:18:20.421Z,59.80
2023-03-11T22:23:22.070Z,59.70
2023-03-11T22:28:23.860Z,59.50
2023-03-11T22:33:25.919Z,59.60
2023-03-11T22:38:27.990Z,59.60
2023-03-11T22:43:29.577Z,59.50
2023-03-11T22:48:31.629Z,59.30
2023-03-11T22:53:33.325Z,59.40
2023-03-11T22:58:34.882Z,59.20
2023-03-11T23:03:36.911Z,59.20
2023-03-11T23:08:38.723Z,59.10
2023-03-11T23:13:41.033Z,59.10
2023-03-11T23:18:43.725Z,59.00
2023-03-11T23:23:45.651Z,59.00
2023-03-11T23:28:48.018Z,58.90
2023-03-11T23:33:49.690Z,58.80
2023-03-11T23:38:51.253Z,58.70
2023-03-11T23:43:52.935Z,58.70
2023-03-11T23:48:54.630Z,58.60
2023-03-11T23:53:56.467Z,58.50
2023-03-11T23:58:58.237Z,58.30
